»·PEaware :: EAL512 KSEA-KSFO

EAL512 :: KSEA-KSFO

FLIGHT INFORMATION

Flight Status: Arrived
Operator:
Eastern Air Lines
More flights by this operator :: More flights under this callsign
Pilot: Alex K. (14822)
Aircraft: BOEING 757-200
(B752)
More flights by this aircraft type
Origin: KSEA Seattle-Tacoma Intl
United States
Destination: KSFO San Francisco Intl
United States
More flights between these airports :: More routes between these airports
Route: +HAROB6 ERAVE Q1 ETCHY MLBEC BDEGA2
File this flight plan on PilotEdge
Remarks: I FLY DA PLAN YES
Altitude:
(Current/Filed)
37,000ft
Speed:
(Current/Filed)
463kts
Departed: 08-Jan-18 06:36 PM
Arrived: 08-Jan-18 08:29 PM
Distance/Time
Traveled:
590nm/1:53
Distance/Time
To Go:
Arrived

Flight Plot

Page will automatically refresh every two minutes.

Flight plan parsing failed; only flown route is shown


Map Options




Map Legend


Flown Route
Filed Route
Departure Airport
Arrival Airport
Navaid (VOR, NDB)
Fix

Horizontal Profiles

Position Reports

Time Latitude Longitude Heading Altitude Ground
Speed
08-Jan-18 18:00 47.440288 -122.299422 46 381ft 0kts
08-Jan-18 18:01 47.440288 -122.299422 46 381ft 0kts
08-Jan-18 18:02 47.440288 -122.299422 46 381ft 0kts
08-Jan-18 18:03 47.440288 -122.299422 46 381ft 0kts
08-Jan-18 18:04 47.440288 -122.299422 46 381ft 0kts
08-Jan-18 18:05 47.440288 -122.299422 46 381ft 0kts
08-Jan-18 18:06 47.440289 -122.299422 46 381ft 0kts
08-Jan-18 18:07 47.440289 -122.299422 46 381ft 0kts
08-Jan-18 18:08 47.440289 -122.299422 46 381ft 0kts
08-Jan-18 18:09 47.440289 -122.299422 46 381ft 0kts
08-Jan-18 18:10 47.440289 -122.299422 46 381ft 0kts
08-Jan-18 18:11 47.440289 -122.299422 46 381ft 0kts
08-Jan-18 18:12 47.440289 -122.299422 46 381ft 0kts
08-Jan-18 18:13 47.440289 -122.299422 46 381ft 0kts
08-Jan-18 18:14 47.440289 -122.299422 46 381ft 0kts
08-Jan-18 18:15 47.440289 -122.299422 46 381ft 0kts
08-Jan-18 18:16 47.440288 -122.299422 46 381ft 0kts
08-Jan-18 18:17 47.440288 -122.299422 46 381ft 0kts
08-Jan-18 18:18 47.440288 -122.299422 46 381ft 0kts
08-Jan-18 18:19 47.440288 -122.299422 46 381ft 0kts
08-Jan-18 18:20 47.440288 -122.299422 46 381ft 0kts
08-Jan-18 18:21 47.440288 -122.299422 46 381ft 0kts
08-Jan-18 18:22 47.440288 -122.299422 46 381ft 0kts
08-Jan-18 18:23 47.440288 -122.299422 46 381ft 0kts
08-Jan-18 18:24 47.440288 -122.299422 46 381ft 0kts
08-Jan-18 18:25 47.440288 -122.299422 46 381ft 0kts
08-Jan-18 18:26 47.440288 -122.299422 46 381ft 0kts
08-Jan-18 18:27 47.440053 -122.299778 46 382ft 1kts
08-Jan-18 18:28 47.439719 -122.299953 348 381ft 2kts
08-Jan-18 18:29 47.439481 -122.299749 315 380ft 0kts
08-Jan-18 18:30 47.439481 -122.299750 315 380ft 0kts
08-Jan-18 18:31 47.439566 -122.299873 315 380ft 2kts
08-Jan-18 18:32 47.440492 -122.301809 267 383ft 8kts
08-Jan-18 18:33 47.439898 -122.305073 270 379ft 8kts
08-Jan-18 18:34 47.440831 -122.306362 0 382ft 5kts
08-Jan-18 18:35 47.444309 -122.306327 0 393ft 14kts
08-Jan-18 18:36 47.448520 -122.306286 0 406ft 19kts
08-Jan-18 18:37 47.451800 -122.306243 0 422ft 8kts
08-Jan-18 18:38 47.456348 -122.306207 0 442ft 23kts
08-Jan-18 18:39 47.463008 -122.306134 0 427ft 10kts
08-Jan-18 18:40 47.463231 -122.307745 182 414ft 0kts
08-Jan-18 18:41 47.463225 -122.307746 182 414ft 0kts
08-Jan-18 18:42 47.445878 -122.307922 180 493ft 149kts
08-Jan-18 18:43 47.402955 -122.307990 180 2387ft 179kts
08-Jan-18 18:44 47.340696 -122.312753 198 4780ft 254kts
08-Jan-18 18:45 47.311019 -122.402237 260 8416ft 269kts
08-Jan-18 18:46 47.309053 -122.513564 276 11226ft 305kts
08-Jan-18 18:47 47.312481 -122.640965 271 14896ft 319kts
08-Jan-18 18:48 47.312948 -122.774007 251 17746ft 337kts
08-Jan-18 18:49 47.279981 -122.903532 245 20783ft 345kts
08-Jan-18 18:50 47.240896 -123.033045 230 23462ft 350kts
08-Jan-18 18:51 47.165694 -123.124691 217 25793ft 358kts
08-Jan-18 18:52 47.086326 -123.211258 217 28488ft 350kts
08-Jan-18 18:53 47.007255 -123.296753 217 30150ft 359kts
08-Jan-18 18:54 46.919342 -123.383339 204 30473ft 402kts
08-Jan-18 18:55 46.812282 -123.398422 188 32278ft 412kts
08-Jan-18 18:56 46.708835 -123.452433 210 33931ft 398kts
08-Jan-18 18:57 46.611746 -123.528665 210 35396ft 397kts
08-Jan-18 18:58 46.511792 -123.593940 194 36475ft 403kts
08-Jan-18 18:59 46.398633 -123.579481 179 36746ft 414kts
08-Jan-18 19:00 46.284840 -123.565918 182 36744ft 411kts
08-Jan-18 19:01 46.171630 -123.557264 183 36742ft 411kts
08-Jan-18 19:02 46.061619 -123.549729 183 36741ft 411kts
08-Jan-18 19:03 45.951399 -123.504778 152 36774ft 439kts
08-Jan-18 19:04 45.857780 -123.392368 151 36779ft 442kts
08-Jan-18 19:05 45.753226 -123.341575 186 36788ft 414kts
08-Jan-18 19:06 45.644111 -123.381177 194 36782ft 409kts
08-Jan-18 19:07 45.529785 -123.392332 184 36749ft 415kts
08-Jan-18 19:08 45.414664 -123.390226 182 36748ft 417kts
08-Jan-18 19:09 45.300801 -123.385668 182 36746ft 417kts
08-Jan-18 19:10 45.184916 -123.380594 182 36745ft 417kts
08-Jan-18 19:11 45.069478 -123.375482 182 36743ft 417kts
08-Jan-18 19:12 44.955025 -123.370419 182 36742ft 417kts
08-Jan-18 19:13 44.843449 -123.365500 182 36753ft 417kts
08-Jan-18 19:14 44.728604 -123.360455 182 36747ft 417kts
08-Jan-18 19:15 44.613015 -123.355400 182 36723ft 417kts
08-Jan-18 19:16 44.498013 -123.350393 182 36749ft 417kts
08-Jan-18 19:17 44.390126 -123.345697 182 36749ft 395kts
08-Jan-18 19:18 44.281164 -123.341000 182 36746ft 395kts
08-Jan-18 19:19 44.171347 -123.336273 182 36731ft 395kts
08-Jan-18 19:20 44.062106 -123.331587 182 36717ft 395kts
08-Jan-18 19:21 43.953005 -123.326923 182 36715ft 395kts
08-Jan-18 19:22 43.845461 -123.322340 182 36726ft 395kts
08-Jan-18 19:23 43.736377 -123.306178 164 36736ft 409kts
08-Jan-18 19:24 43.636114 -123.230163 156 36724ft 415kts
08-Jan-18 19:25 43.536393 -123.151063 156 36723ft 415kts
08-Jan-18 19:26 43.432141 -123.097775 184 36733ft 395kts
08-Jan-18 19:27 43.343812 -123.117687 194 36721ft 390kts
08-Jan-18 19:28 43.219303 -123.145552 188 36720ft 393kts
08-Jan-18 19:29 43.129312 -123.157651 189 36718ft 392kts
08-Jan-18 19:30 43.003280 -123.175602 189 36717ft 392kts
08-Jan-18 19:31 42.913277 -123.188517 189 36716ft 392kts
08-Jan-18 19:32 42.788453 -123.206388 189 36725ft 392kts
08-Jan-18 19:33 42.698588 -123.219215 189 36698ft 392kts
08-Jan-18 19:34 42.572706 -123.237120 189 36696ft 392kts
08-Jan-18 19:35 42.482744 -123.249298 185 36695ft 393kts
08-Jan-18 19:36 42.373249 -123.246227 182 36692ft 395kts
08-Jan-18 19:37 42.263922 -123.242422 182 36691ft 395kts
08-Jan-18 19:38 42.155119 -123.238567 182 36712ft 395kts
08-Jan-18 19:39 42.045615 -123.234689 182 36715ft 394kts
08-Jan-18 19:40 41.938862 -123.230919 182 36714ft 394kts
08-Jan-18 19:41 41.832342 -123.227167 182 36725ft 394kts
08-Jan-18 19:42 41.724187 -123.223373 182 36750ft 394kts
08-Jan-18 19:43 41.615141 -123.219559 182 36749ft 394kts
08-Jan-18 19:44 41.507702 -123.215816 182 36748ft 394kts
08-Jan-18 19:45 41.398724 -123.212046 182 36749ft 399kts
08-Jan-18 19:46 41.287783 -123.208193 182 36799ft 399kts
08-Jan-18 19:47 41.178069 -123.204407 182 36798ft 399kts
08-Jan-18 19:48 41.067062 -123.200591 182 36797ft 399kts
08-Jan-18 19:49 40.956565 -123.196805 182 36795ft 399kts
08-Jan-18 19:50 40.848279 -123.193106 182 36807ft 399kts
08-Jan-18 19:51 40.737963 -123.189349 182 36789ft 398kts
08-Jan-18 19:52 40.627589 -123.185605 182 36787ft 398kts
08-Jan-18 19:53 40.517550 -123.181884 182 36786ft 398kts
08-Jan-18 19:54 40.406964 -123.178157 182 36784ft 398kts
08-Jan-18 19:55 40.296474 -123.174446 182 36783ft 398kts
08-Jan-18 19:56 40.186398 -123.170761 182 36783ft 398kts
08-Jan-18 19:57 40.076523 -123.167094 182 36797ft 397kts
08-Jan-18 19:58 39.966260 -123.163426 182 36795ft 397kts
08-Jan-18 19:59 39.858325 -123.159846 182 36806ft 391kts
08-Jan-18 20:00 39.750365 -123.156261 183 36806ft 391kts
08-Jan-18 20:01 39.641697 -123.152694 183 36804ft 391kts
08-Jan-18 20:02 39.533442 -123.149140 183 36728ft 391kts
08-Jan-18 20:03 39.425219 -123.145596 183 36720ft 391kts
08-Jan-18 20:04 39.316946 -123.142062 183 36719ft 391kts
08-Jan-18 20:05 39.208439 -123.138532 183 36714ft 391kts
08-Jan-18 20:06 39.099867 -123.130303 171 36222ft 399kts
08-Jan-18 20:07 39.000707 -123.060996 154 34815ft 412kts
08-Jan-18 20:08 38.903907 -122.982581 154 32921ft 416kts
08-Jan-18 20:09 38.813650 -122.941747 170 31093ft 409kts
08-Jan-18 20:10 38.707849 -122.909640 171 29472ft 387kts
08-Jan-18 20:11 38.605661 -122.879367 170 27306ft 371kts
08-Jan-18 20:12 38.507350 -122.850401 170 25345ft 359kts
08-Jan-18 20:13 38.411912 -122.822346 170 23555ft 350kts
08-Jan-18 20:14 38.319482 -122.795237 170 21817ft 335kts
08-Jan-18 20:15 38.229816 -122.772868 184 20162ft 324kts
08-Jan-18 20:16 38.141779 -122.784625 187 18564ft 318kts
08-Jan-18 20:17 38.056269 -122.777158 156 17278ft 321kts
08-Jan-18 20:18 37.976951 -122.724259 156 15823ft 326kts
08-Jan-18 20:19 37.898251 -122.671145 147 14302ft 322kts
08-Jan-18 20:20 37.830346 -122.599983 146 12683ft 316kts
08-Jan-18 20:21 37.757730 -122.557337 160 11727ft 275kts
08-Jan-18 20:22 37.690926 -122.521734 160 11233ft 245kts
08-Jan-18 20:23 37.633374 -122.490387 159 11290ft 223kts
08-Jan-18 20:24 37.578149 -122.454103 147 10205ft 229kts
08-Jan-18 20:25 37.564640 -122.374489 110 8650ft 243kts
08-Jan-18 20:26 37.531526 -122.309443 154 7977ft 228kts
08-Jan-18 20:27 37.476906 -122.266690 127 7784ft 240kts
08-Jan-18 20:28 37.476023 -122.185703 79 6131ft 241kts
08-Jan-18 20:29 37.499905 -122.120378 10 4464ft 219kts
08-Jan-18 20:30 37.537324 -122.169466 294 2859ft 222kts
08-Jan-18 20:31 37.559443 -122.227715 297 2265ft 144kts
08-Jan-18 20:32 37.576653 -122.269235 298 1592ft 132kts
08-Jan-18 20:33 37.593866 -122.310190 300 898ft 135kts
08-Jan-18 20:34 37.610963 -122.350889 299 229ft 133kts
08-Jan-18 20:35 37.621940 -122.377841 281 30ft 36kts
08-Jan-18 20:36 37.622115 -122.385644 262 34ft 0kts
08-Jan-18 20:37 37.621285 -122.385868 119 35ft 6kts
08-Jan-18 20:38 37.620322 -122.383625 119 34ft 7kts
08-Jan-18 20:39 37.618811 -122.382559 152 34ft 6kts
08-Jan-18 20:40 37.618357 -122.382031 139 34ft 0kts
08-Jan-18 20:41 37.618357 -122.382031 139 34ft 0kts
08-Jan-18 20:42 37.618357 -122.382031 139 34ft 0kts
08-Jan-18 20:43 37.618357 -122.382031 139 34ft 0kts
08-Jan-18 20:44 37.618357 -122.382031 139 34ft 0kts
08-Jan-18 20:45 37.618357 -122.382031 139 34ft 0kts
08-Jan-18 20:46 37.618357 -122.382031 139 34ft 0kts
08-Jan-18 20:47 37.618357 -122.382031 139 34ft 0kts
08-Jan-18 20:48 37.618357 -122.382031 139 34ft 0kts
08-Jan-18 20:49 37.618357 -122.382031 139 34ft 0kts

Navigation Log

Ident Type
Flight plan parsing failed, navigation log unavailable